Time;durP1;ratioP1;P1;durP2;ratioP2;P2;SDS_P1;SDS_P2;PMS_P1;PMS_P2;Temp;Humidity;BMP_temperature;BMP_pressure;BME280_temperature;BME280_humidity;BME280_pressure;Samples;Min_cycle;Max_cycle;Signal;HPM_P1;HPM_P2
2022/03/23 00:02:08;;;;;;;;;24.25;20.50;;;;;19.88;30.10;102301.91;4953325;28;45851;-55
2022/03/23 00:04:34;;;;;;;;;28.00;21.75;;;;;19.86;30.08;102303.69;4954951;28;45328;-55
2022/03/23 00:06:59;;;;;;;;;23.50;21.75;;;;;19.86;29.78;102298.44;4955022;28;45451;-47
2022/03/23 00:09:26;;;;;;;;;21.25;20.25;;;;;19.85;30.46;102301.94;4953549;28;47292;-56
2022/03/23 00:11:52;;;;;;;;;21.00;20.00;;;;;19.85;29.94;102309.84;4954558;28;45765;-53
2022/03/23 00:14:18;;;;;;;;;21.00;19.25;;;;;19.83;30.05;102309.91;4954794;28;45268;-49
2022/03/23 00:16:43;;;;;;;;;28.50;20.75;;;;;19.82;30.41;102313.44;4954578;28;45578;-53
2022/03/23 00:19:09;;;;;;;;;19.50;18.00;;;;;19.81;30.24;102314.34;4954161;28;46300;-56
2022/03/23 00:21:35;;;;;;;;;23.75;20.50;;;;;19.81;30.35;102313.44;4954281;28;45277;-55
2022/03/23 00:24:00;;;;;;;;;20.75;19.75;;;;;19.80;30.17;102316.97;4954786;28;45241;-55
2022/03/23 00:26:26;;;;;;;;;22.33;18.00;;;;;19.77;30.23;102321.47;4954845;28;45305;-51
2022/03/23 00:28:51;;;;;;;;;23.50;21.25;;;;;19.79;30.22;102329.28;4954161;28;46290;-56
2022/03/23 00:31:18;;;;;;;;;23.00;20.50;;;;;19.78;30.19;102328.44;4954247;28;45353;-52
2022/03/23 00:33:44;;;;;;;;;24.50;23.25;;;;;19.76;30.04;102325.00;4954403;28;45418;-55
2022/03/23 00:36:11;;;;;;;;;20.50;20.50;;;;;19.78;30.03;102328.44;4954557;28;45625;-55
2022/03/23 00:38:36;;;;;;;;;20.00;16.75;;;;;19.76;30.40;102325.00;4954303;28;46083;-51
2022/03/23 00:41:03;;;;;;;;;23.25;20.00;;;;;19.76;30.06;102326.75;4957124;28;45174;-50
2022/03/23 00:43:28;;;;;;;;;18.75;17.25;;;;;19.75;30.38;102318.00;4957608;28;45433;-55
2022/03/23 00:45:54;;;;;;;;;25.25;20.00;;;;;19.75;30.61;102323.25;4957428;28;45265;-51
2022/03/23 00:48:20;;;;;;;;;21.00;17.75;;;;;19.74;29.82;102326.78;4957045;28;45199;-54
2022/03/23 00:50:46;;;;;;;;;21.00;18.00;;;;;19.73;30.05;102325.06;4958316;28;45214;-46
2022/03/23 00:53:11;;;;;;;;;28.25;20.75;;;;;19.73;29.98;102325.06;4957127;28;45454;-48
2022/03/23 00:55:36;;;;;;;;;20.75;20.00;;;;;19.73;30.20;102325.06;4957234;28;45275;-50
2022/03/23 00:58:02;;;;;;;;;22.00;20.75;;;;;19.72;30.29;102325.97;4956795;28;46028;-49
2022/03/23 01:00:27;;;;;;;;;22.50;18.00;;;;;19.72;30.25;102325.13;4957224;28;45351;-50
2022/03/23 01:02:53;;;;;;;;;24.00;21.25;;;;;19.72;30.29;102328.59;4957132;28;45317;-42
2022/03/23 01:05:19;;;;;;;;;21.25;20.25;;;;;19.71;30.46;102328.66;4957282;28;45304;-47
2022/03/23 01:07:44;;;;;;;;;20.00;19.00;;;;;19.71;30.55;102332.13;4956764;28;46465;-46
2022/03/23 01:10:12;;;;;;;;;17.75;17.75;;;;;19.70;30.46;102330.41;4956884;28;45470;-44
2022/03/23 01:12:39;;;;;;;;;14.75;14.75;;;;;19.70;29.82;102319.88;4956939;27;45420;-51
2022/03/23 01:15:06;;;;;;;;;23.25;19.75;;;;;19.71;30.40;102326.03;4956941;28;45560;-48
2022/03/23 01:17:32;;;;;;;;;22.50;18.25;;;;;19.70;30.12;102329.56;4956402;28;46004;-52
2022/03/23 01:19:58;;;;;;;;;18.00;17.75;;;;;19.69;29.82;102318.16;4957087;28;45544;-54
2022/03/23 01:22:23;;;;;;;;;22.50;19.25;;;;;19.69;30.28;102320.78;4956829;28;45353;-53
2022/03/23 01:24:48;;;;;;;;;22.50;18.25;;;;;19.69;30.35;102318.16;4957008;28;45494;-56
2022/03/23 01:27:14;;;;;;;;;22.25;18.75;;;;;19.68;30.35;102321.69;4956642;28;45357;-53
2022/03/23 01:29:39;;;;;;;;;21.25;19.00;;;;;19.68;30.14;102318.22;4956673;28;45449;-49
2022/03/23 01:32:05;;;;;;;;;25.25;20.25;;;;;19.67;30.20;102319.13;4956612;28;45406;-52
2022/03/23 01:34:30;;;;;;;;;20.75;20.25;;;;;19.68;30.08;102316.44;4957204;28;45399;-48
2022/03/23 01:36:56;;;;;;;;;21.50;20.75;;;;;19.66;30.38;102313.00;4956460;28;46654;-52
2022/03/23 01:39:21;;;;;;;;;19.50;19.25;;;;;19.66;30.31;102306.88;4955154;28;45754;-46
2022/03/23 01:41:47;;;;;;;;;24.50;21.75;;;;;19.66;30.34;102310.38;4956594;28;45320;-54
2022/03/23 01:44:19;;;;;;;;;27.25;20.00;;;;;19.67;29.82;102313.84;4956760;28;45743;-51
2022/03/23 01:47:06;;;;;;;;;21.75;20.00;;;;;19.66;30.21;102317.38;4939331;28;47487;-54
2022/03/23 01:49:32;;;;;;;;;21.00;18.50;;;;;19.65;30.44;102311.28;4956192;28;45188;-53
2022/03/23 01:51:57;;;;;;;;;19.00;17.25;;;;;19.66;29.92;102310.38;4956832;28;45832;-56
2022/03/23 01:54:23;;;;;;;;;23.50;20.25;;;;;19.63;30.38;102313.09;4955446;28;45798;-52
2022/03/23 01:56:50;;;;;;;;;15.75;15.75;;;;;19.65;29.91;102313.91;4954987;28;45529;-48
2022/03/23 01:59:18;;;;;;;;;23.50;19.25;;;;;19.65;30.02;102310.41;4956200;28;45410;-46
2022/03/23 02:01:44;;;;;;;;;24.00;18.50;;;;;19.65;30.23;102313.91;4956342;28;45474;-50
2022/03/23 02:04:10;;;;;;;;;17.75;15.25;;;;;19.62;30.35;102306.09;4956503;28;45469;-50
2022/03/23 02:06:35;;;;;;;;;24.25;20.00;;;;;19.61;30.03;102304.38;4955965;28;47001;-46
2022/03/23 02:09:02;;;;;;;;;18.00;17.00;;;;;19.63;30.28;102310.44;4956327;28;45234;-49
2022/03/23 02:11:28;;;;;;;;;19.25;18.50;;;;;19.62;29.89;102301.69;4956348;28;45217;-48
2022/03/23 02:13:54;;;;;;;;;18.00;16.75;;;;;19.61;29.92;102314.88;4956353;28;45659;-48
2022/03/23 02:16:20;;;;;;;;;20.50;18.00;;;;;19.61;29.87;102315.75;4955854;28;45367;-44
2022/03/23 02:18:46;;;;;;;;;23.25;19.75;;;;;19.61;30.27;102309.63;4955776;28;45253;-46
2022/03/23 02:21:14;;;;;;;;;21.50;21.50;;;;;19.62;29.85;102308.72;4956148;28;45348;-48
2022/03/23 02:23:40;;;;;;;;;19.75;18.75;;;;;19.61;29.91;102309.63;4956168;28;45618;-46
2022/03/23 02:26:06;;;;;;;;;21.25;19.25;;;;;19.61;29.87;102304.38;4954532;28;46263;-46
2022/03/23 02:28:32;;;;;;;;;19.25;15.75;;;;;19.61;30.07;102310.50;4956258;28;45756;-45
2022/03/23 02:30:57;;;;;;;;;18.75;16.25;;;;;19.61;30.04;102318.41;4955940;28;45249;-44
2022/03/23 02:33:23;;;;;;;;;20.00;17.25;;;;;19.59;30.16;102307.06;4956108;28;45239;-45
2022/03/23 02:35:48;;;;;;;;;17.75;17.50;;;;;19.59;29.81;102303.53;4955654;28;49616;-51
2022/03/23 02:38:16;;;;;;;;;23.50;21.00;;;;;19.60;29.93;102315.78;4955763;28;45441;-51
2022/03/23 02:40:42;;;;;;;;;19.50;19.50;;;;;19.59;30.16;102311.44;4956027;28;45312;-48
2022/03/23 02:43:07;;;;;;;;;20.75;18.50;;;;;19.58;29.90;102317.59;4956140;28;45473;-53
2022/03/23 02:45:33;;;;;;;;;20.50;20.50;;;;;19.59;29.91;102321.94;4955985;28;45395;-49
2022/03/23 02:47:58;;;;;;;;;21.50;17.00;;;;;19.57;30.25;102313.22;4955768;28;45442;-54
2022/03/23 02:50:24;;;;;;;;;18.50;18.50;;;;;19.58;29.97;102313.22;4955838;28;45391;-54
2022/03/23 03:04:10;;;;;;;;;22.75;19.50;;;;;19.56;30.14;102322.06;4955824;28;45513;-55
2022/03/23 03:06:35;;;;;;;;;20.75;17.75;;;;;19.55;30.26;102330.84;4954439;28;46137;-56
2022/03/23 03:09:01;;;;;;;;;22.00;20.75;;;;;19.54;30.01;102329.97;4955393;28;45346;-55
2022/03/23 03:11:26;;;;;;;;;20.00;18.50;;;;;19.55;30.05;102330.84;4955644;28;45408;-55
2022/03/23 03:13:52;;;;;;;;;19.75;19.00;;;;;19.54;29.76;102329.97;4955824;28;45315;-54
2022/03/23 03:16:19;;;;;;;;;21.00;19.25;;;;;19.53;29.95;102335.28;4955297;28;46261;-56
2022/03/23 03:18:46;;;;;;;;;23.50;19.75;;;;;19.53;30.16;102336.13;4955084;28;45335;-54
2022/03/23 03:21:12;;;;;;;;;21.25;21.25;;;;;19.54;30.17;102334.38;4955541;28;45394;-55
2022/03/23 03:23:40;;;;;;;;;20.00;17.75;;;;;19.53;30.16;102335.28;4955786;28;45282;-50
2022/03/23 03:26:06;;;;;;;;;17.00;15.00;;;;;19.53;29.84;102348.44;4955405;28;47041;-55
2022/03/23 03:28:33;;;;;;;;;19.25;17.25;;;;;19.53;29.75;102346.66;4955254;28;45223;-57
2022/03/23 03:31:00;;;;;;;;;19.75;18.00;;;;;19.52;29.96;102349.34;4955254;28;45215;-55
2022/03/23 03:33:25;;;;;;;;;21.00;17.75;;;;;19.52;30.09;102346.69;4955540;28;45197;-55
2022/03/23 03:35:51;;;;;;;;;19.75;18.00;;;;;19.52;29.84;102349.34;4955108;28;45319;-54
2022/03/23 03:38:16;;;;;;;;;23.67;20.67;;;;;19.51;29.77;102348.47;4955097;28;45399;-54
2022/03/23 03:40:42;;;;;;;;;23.00;21.67;;;;;19.52;30.16;102355.44;4953813;28;45449;-52
2022/03/23 03:43:07;;;;;;;;;17.00;16.00;;;;;19.51;29.93;102358.13;4955641;28;45401;-48
2022/03/23 03:45:33;;;;;;;;;16.00;15.75;;;;;19.51;29.69;102358.13;4954959;28;46329;-48
2022/03/23 03:47:58;;;;;;;;;26.00;21.00;;;;;19.49;30.02;102360.81;4955041;28;45269;-54
2022/03/23 03:50:24;;;;;;;;;20.00;17.25;;;;;19.51;30.07;102371.28;4955068;28;45746;-52
2022/03/23 03:52:49;;;;;;;;;20.75;18.75;;;;;19.49;29.65;102366.06;4953899;28;45440;-52
2022/03/23 03:55:14;;;;;;;;;19.25;19.25;;;;;19.50;29.70;102369.53;4954689;28;46174;-52
2022/03/23 03:57:39;;;;;;;;;7.25;6.25;;;;;19.51;30.08;102366.00;4954892;28;45372;-51
2022/03/23 04:00:06;;;;;;;;;17.33;15.67;;;;;19.50;29.68;102369.53;4954959;28;51124;-53
2022/03/23 04:02:31;;;;;;;;;18.50;16.25;;;;;19.49;30.00;102370.44;4954938;28;45305;-55
2022/03/23 04:04:56;;;;;;;;;19.00;17.33;;;;;19.49;29.64;102367.81;4954534;28;49571;-56
2022/03/23 04:07:22;;;;;;;;;18.75;18.75;;;;;19.48;29.70;102366.97;4954393;28;51380;-51
2022/03/23 04:09:47;;;;;;;;;19.25;18.00;;;;;19.48;30.03;102372.22;4954728;28;45295;-54
2022/03/23 04:12:12;;;;;;;;;22.00;19.25;;;;;19.49;30.14;102375.69;4954774;28;45502;-50
2022/03/23 04:14:37;;;;;;;;;18.75;18.50;;;;;19.48;29.77;102374.84;4954567;28;45945;-51
2022/03/23 04:17:04;;;;;;;;;21.50;18.00;;;;;19.47;30.03;102384.50;4954415;28;45458;-55
2022/03/23 04:19:29;;;;;;;;;17.00;17.00;;;;;19.47;29.92;102383.66;4954599;28;45220;-56
2022/03/23 04:21:55;;;;;;;;;17.00;15.25;;;;;19.47;30.08;102386.28;4954784;28;45337;-48
2022/03/23 04:24:20;;;;;;;;;20.00;17.00;;;;;19.46;29.96;102376.66;4954388;28;46462;-54
2022/03/23 04:26:45;;;;;;;;;24.33;16.00;;;;;19.47;29.62;102391.53;4954372;28;45216;-51
2022/03/23 04:29:12;;;;;;;;;16.25;13.00;;;;;19.45;29.84;102394.22;4954823;28;45598;-53
2022/03/23 04:31:38;;;;;;;;;18.75;18.75;;;;;19.46;29.85;102389.81;4955050;28;45378;-54
2022/03/23 04:34:03;;;;;;;;;16.75;16.75;;;;;19.46;29.99;102388.03;4952931;28;48056;-52
2022/03/23 04:36:28;;;;;;;;;17.75;14.50;;;;;19.46;29.95;102390.66;4954166;28;45396;-53
2022/03/23 04:38:54;;;;;;;;;17.25;17.25;;;;;19.45;29.92;102390.69;4954344;28;45389;-50
2022/03/23 04:41:19;;;;;;;;;20.25;19.00;;;;;19.45;29.97;102394.22;4954365;28;45657;-53
2022/03/23 04:43:44;;;;;;;;;16.00;16.00;;;;;19.44;29.89;102384.59;4954187;28;45809;-54
2022/03/23 04:46:10;;;;;;;;;14.25;12.25;;;;;19.45;29.64;102394.22;4953205;28;45281;-48
2022/03/23 04:48:35;;;;;;;;;18.25;17.25;;;;;19.44;29.91;102392.47;4954306;28;45355;-55
2022/03/23 04:51:01;;;;;;;;;16.75;16.50;;;;;19.43;29.54;102401.28;4954541;28;45229;-52
2022/03/23 04:53:26;;;;;;;;;21.00;16.25;;;;;19.43;29.91;102401.28;4953896;28;46172;-55
2022/03/23 04:55:52;;;;;;;;;17.75;16.75;;;;;19.44;29.79;102402.13;4953967;28;45441;-48
2022/03/23 04:58:17;;;;;;;;;17.25;16.00;;;;;19.44;29.73;102407.38;4953964;28;45447;-53
2022/03/23 05:00:42;;;;;;;;;18.00;17.50;;;;;19.43;29.90;102403.91;4954391;28;45521;-51
2022/03/23 05:03:08;;;;;;;;;18.25;18.25;;;;;19.43;29.64;102410.91;4954225;28;47283;-49
2022/03/23 05:05:34;;;;;;;;;20.00;17.50;;;;;19.43;29.64;102406.53;4954036;28;45261;-51
2022/03/23 05:07:59;;;;;;;;;20.50;17.00;;;;;19.42;29.88;102403.91;4954046;28;45391;-52
2022/03/23 05:10:25;;;;;;;;;19.50;18.25;;;;;19.41;29.97;102403.06;4954097;28;45360;-53
2022/03/23 05:12:51;;;;;;;;;18.25;16.50;;;;;19.41;29.84;102403.06;4953692;28;46567;-51
2022/03/23 05:15:17;;;;;;;;;18.75;16.50;;;;;19.40;29.79;102401.34;4955188;28;45499;-49
2022/03/23 05:17:45;;;;;;;;;18.00;16.25;;;;;19.42;29.94;102410.06;4953673;28;45430;-50
2022/03/23 05:20:12;;;;;;;;;20.75;16.75;;;;;19.42;29.76;102404.81;4954340;28;45529;-52
2022/03/23 05:22:38;;;;;;;;;17.25;16.75;;;;;19.40;29.67;102409.22;4953880;28;46519;-53
2022/03/23 05:25:04;;;;;;;;;21.75;16.50;;;;;19.41;29.92;102408.31;4953070;28;45336;-50
2022/03/23 05:27:34;;;;;;;;;16.75;16.25;;;;;19.40;29.65;102408.38;4956783;28;45353;-56
2022/03/23 05:30:00;;;;;;;;;23.25;21.00;;;;;19.40;29.91;102406.59;4957039;28;45442;-53
2022/03/23 05:32:26;;;;;;;;;19.75;18.25;;;;;19.39;29.92;102404.88;4956597;28;45417;-55
2022/03/23 05:34:51;;;;;;;;;21.50;18.50;;;;;19.40;29.68;102405.75;4956660;28;45224;-53
2022/03/23 05:37:17;;;;;;;;;19.50;18.25;;;;;19.39;29.58;102415.38;4956643;28;45354;-53
2022/03/23 05:39:43;;;;;;;;;20.00;20.00;;;;;19.38;29.51;102420.69;4956904;28;45590;-50
2022/03/23 05:42:08;;;;;;;;;21.50;18.75;;;;;19.36;29.22;102415.47;4956444;28;46390;-51
2022/03/23 05:44:34;;;;;;;;;26.75;22.25;;;;;19.34;28.38;102405.88;4956469;28;45860;-55
2022/03/23 05:47:00;;;;;;;;;31.25;24.50;;;;;19.21;28.31;102410.59;4956354;28;45364;-53
2022/03/23 05:49:26;;;;;;;;;25.25;24.25;;;;;19.07;27.50;102414.41;4956538;28;45344;-53
2022/03/23 05:51:52;;;;;;;;;30.25;27.25;;;;;18.87;27.78;102419.25;4956126;28;45359;-55
2022/03/23 05:54:18;;;;;;;;;28.00;27.00;;;;;18.69;27.96;102413.50;4955973;28;45379;-52
2022/03/23 05:56:43;;;;;;;;;47.25;38.75;;;;;18.53;28.02;102416.47;4956574;28;45487;-49
2022/03/23 05:59:08;;;;;;;;;44.75;36.75;;;;;18.42;27.81;102413.22;4956277;28;45462;-53
2022/03/23 06:01:35;;;;;;;;;53.33;42.67;;;;;18.33;27.76;102418.66;4955822;28;45336;-52
2022/03/23 06:04:00;;;;;;;;;53.50;44.50;;;;;18.21;27.98;102414.53;4955980;28;45312;-48
2022/03/23 06:06:25;;;;;;;;;45.50;37.75;;;;;18.06;27.63;102413.94;4954643;28;45500;-52
2022/03/23 06:08:51;;;;;;;;;49.33;41.67;;;;;17.96;27.93;102422.88;4956209;28;45299;-48
2022/03/23 06:11:16;;;;;;;;;49.25;38.75;;;;;17.90;27.93;102421.22;4955856;28;45383;-47
2022/03/23 06:13:41;;;;;;;;;40.50;35.50;;;;;17.87;27.70;102429.13;4956197;28;45401;-54
2022/03/23 06:16:08;;;;;;;;;40.00;32.75;;;;;17.84;28.07;102433.59;4956008;28;45299;-54
2022/03/23 06:18:34;;;;;;;;;47.75;39.50;;;;;17.87;28.37;102434.38;4955942;28;45578;-51
2022/03/23 06:21:00;;;;;;;;;76.25;62.50;;;;;17.96;28.57;102435.97;4955496;28;45625;-48
2022/03/23 06:23:26;;;;;;;;;72.00;57.75;;;;;18.06;28.53;102440.19;4955705;28;45202;-50
2022/03/23 06:25:51;;;;;;;;;66.25;53.75;;;;;18.15;28.58;102449.63;4955728;28;45458;-49
2022/03/23 06:28:18;;;;;;;;;66.75;51.50;;;;;18.23;28.48;102449.47;4956026;28;45406;-48
2022/03/23 06:30:43;;;;;;;;;63.00;50.75;;;;;18.31;28.38;102449.31;4955839;28;46052;-52
2022/03/23 06:33:08;;;;;;;;;58.00;48.33;;;;;18.37;28.66;102450.06;4955579;28;45449;-54
2022/03/23 06:35:35;;;;;;;;;61.50;49.00;;;;;18.44;28.56;102455.19;4955648;28;45331;-51
2022/03/23 06:38:01;;;;;;;;;56.00;45.50;;;;;18.49;28.28;102455.97;4955801;28;45668;-48
2022/03/23 06:40:27;;;;;;;;;54.50;44.00;;;;;18.53;28.47;102458.50;4955437;28;45222;-52
2022/03/23 06:42:52;;;;;;;;;56.25;46.00;;;;;18.60;28.46;102463.59;4955540;28;45246;-51
2022/03/23 06:45:18;;;;;;;;;58.00;43.50;;;;;18.62;28.60;102464.44;4955558;28;45217;-50
2022/03/23 06:47:43;;;;;;;;;54.25;44.50;;;;;18.66;28.64;102464.34;4956105;28;45579;-50
2022/03/23 06:50:09;;;;;;;;;52.00;43.00;;;;;18.70;28.26;102473.00;4955436;28;46105;-49
2022/03/23 06:52:34;;;;;;;;;52.25;42.00;;;;;18.73;28.57;102472.94;4954039;28;45225;-52
2022/03/23 06:55:00;;;;;;;;;51.00;42.25;;;;;18.75;28.57;102476.41;4955654;28;45267;-50
2022/03/23 06:57:26;;;;;;;;;47.50;40.75;;;;;18.78;28.48;102475.47;4955611;28;45469;-50
2022/03/23 06:59:51;;;;;;;;;51.75;39.00;;;;;18.80;28.68;102479.78;4955178;28;45435;-47
2022/03/23 07:02:16;;;;;;;;;51.00;39.75;;;;;18.82;28.66;102477.16;4955658;28;45414;-49
2022/03/23 07:04:42;;;;;;;;;45.33;37.00;;;;;18.85;28.73;102483.19;4955346;28;45299;-46
2022/03/23 07:07:07;;;;;;;;;45.50;36.50;;;;;18.87;28.50;102491.03;4954025;28;45587;-51
2022/03/23 07:09:32;;;;;;;;;43.75;36.00;;;;;18.88;28.70;102482.25;4953978;28;46270;-51
2022/03/23 07:12:00;;;;;;;;;48.25;36.50;;;;;18.91;28.65;102483.94;4955021;28;45844;-51
2022/03/23 07:14:30;;;;;;;;;42.75;35.50;;;;;18.92;28.50;102483.94;4955351;28;45395;-46
2022/03/23 07:16:56;;;;;;;;;26.75;23.25;;;;;18.94;28.71;102490.06;4955283;28;45296;-51
2022/03/23 07:19:22;;;;;;;;;42.25;36.00;;;;;18.96;28.43;102490.84;4955000;28;45478;-45
2022/03/23 07:21:48;;;;;;;;;40.00;35.25;;;;;18.97;28.83;102497.00;4955356;28;45920;-48
2022/03/23 07:24:13;;;;;;;;;44.25;35.50;;;;;18.99;28.81;102495.19;4955154;28;45799;-48
2022/03/23 07:26:39;;;;;;;;;39.00;35.25;;;;;19.00;28.66;102492.53;4955244;28;45877;-48
2022/03/23 07:29:04;;;;;;;;;36.50;33.50;;;;;19.01;28.58;102498.66;4954882;28;46267;-46
2022/03/23 07:31:30;;;;;;;;;34.25;31.25;;;;;19.02;28.79;102495.09;4954846;28;45403;-50
2022/03/23 07:33:57;;;;;;;;;34.75;29.50;;;;;19.04;29.06;102493.31;4955014;28;45359;-50
2022/03/23 07:36:24;;;;;;;;;35.75;31.50;;;;;19.05;28.86;102495.06;4955113;28;45583;-50
2022/03/23 07:38:49;;;;;;;;;33.50;31.75;;;;;19.06;28.66;102498.56;4954990;28;46383;-51
2022/03/23 07:41:14;;;;;;;;;29.00;26.75;;;;;19.08;28.83;102495.00;4954838;28;45218;-50
2022/03/23 07:43:40;;;;;;;;;36.00;31.67;;;;;19.09;29.12;102503.72;4955007;28;45465;-43
2022/03/23 07:46:05;;;;;;;;;29.75;29.00;;;;;19.10;28.97;102498.47;4955124;28;45480;-51
2022/03/23 07:48:30;;;;;;;;;31.50;28.50;;;;;19.11;28.68;102497.56;4953886;28;45226;-45
2022/03/23 07:50:56;;;;;;;;;33.75;29.50;;;;;19.12;28.85;102501.03;4953853;28;45248;-48
2022/03/23 07:53:21;;;;;;;;;37.50;31.50;;;;;19.12;28.77;102499.28;4954653;28;45388;-51
2022/03/23 07:55:46;;;;;;;;;28.25;24.75;;;;;19.14;28.96;102504.50;4954858;28;45459;-51
2022/03/23 07:58:12;;;;;;;;;27.75;26.25;;;;;19.14;28.88;102512.38;4953070;28;46095;-50
2022/03/23 08:00:43;;;;;;;;;28.50;27.25;;;;;19.15;29.36;102525.47;4954664;28;45355;-47
2022/03/23 08:03:11;;;;;;;;;24.50;24.50;;;;;19.18;29.45;102521.06;4953312;28;45409;-47
2022/03/23 08:05:38;;;;;;;;;23.50;22.25;;;;;19.18;29.36;102527.19;4954826;28;45387;-49
2022/03/23 08:08:04;;;;;;;;;29.50;28.75;;;;;19.20;29.31;102519.28;4954405;28;45562;-49
2022/03/23 08:10:29;;;;;;;;;26.50;24.75;;;;;19.20;29.36;102529.78;4953257;28;46329;-45
2022/03/23 08:12:55;;;;;;;;;23.00;23.00;;;;;19.22;29.44;102522.72;4954680;28;45866;-48
2022/03/23 08:15:21;;;;;;;;;24.00;23.00;;;;;19.24;29.10;102536.69;4954890;28;45330;-49
2022/03/23 08:17:46;;;;;;;;;23.75;22.50;;;;;19.25;29.20;102531.41;4954151;28;47098;-46
2022/03/23 08:22:57;;;;;;;;;25.25;23.25;;;;;19.28;29.31;102533.09;4954249;28;45302;-49
2022/03/23 08:25:23;;;;;;;;;25.75;20.00;;;;;19.29;29.30;102524.31;4954500;28;45752;-46
2022/03/23 08:27:48;;;;;;;;;26.75;24.75;;;;;19.31;29.47;102535.66;4954412;28;46058;-50
2022/03/23 08:30:14;;;;;;;;;24.25;19.25;;;;;19.30;29.43;102529.50;4954037;28;45222;-50
2022/03/23 08:32:39;;;;;;;;;27.00;23.25;;;;;19.33;29.56;102538.25;4954214;28;45184;-50
2022/03/23 08:35:05;;;;;;;;;22.00;22.00;;;;;19.32;29.24;102532.13;4954518;28;45716;-49
2022/03/23 08:37:30;;;;;;;;;23.25;20.25;;;;;19.34;29.62;102532.97;4953994;28;45343;-52
2022/03/23 08:39:56;;;;;;;;;20.75;20.50;;;;;19.36;29.48;102536.41;4954070;28;45343;-51
2022/03/23 08:42:21;;;;;;;;;25.25;21.75;;;;;19.38;29.59;102539.00;4954490;28;45295;-46
2022/03/23 08:44:47;;;;;;;;;20.00;18.50;;;;;19.36;29.33;102536.41;4954169;28;45525;-45
2022/03/23 08:47:12;;;;;;;;;21.00;20.50;;;;;19.40;29.37;102537.22;4953799;28;45514;-52
2022/03/23 08:49:38;;;;;;;;;22.75;19.75;;;;;19.39;29.89;102541.59;4953844;28;45309;-50
2022/03/23 08:52:04;;;;;;;;;20.00;20.00;;;;;19.41;29.41;102538.91;4953840;28;45402;-48
2022/03/23 08:54:30;;;;;;;;;25.75;21.75;;;;;19.42;29.65;102540.66;4954098;28;45343;-46
2022/03/23 08:56:56;;;;;;;;;21.75;18.00;;;;;19.43;29.65;102542.38;4953617;28;45389;-48
2022/03/23 08:59:21;;;;;;;;;30.00;23.25;;;;;19.42;29.42;102541.53;4954029;28;45414;-52
2022/03/23 09:01:46;;;;;;;;;21.75;20.50;;;;;19.44;29.51;102546.75;4956625;28;45308;-49
2022/03/23 09:04:12;;;;;;;;;18.75;18.50;;;;;19.44;29.77;102544.13;4956887;28;45551;-45
2022/03/23 09:06:37;;;;;;;;;22.25;22.25;;;;;19.42;29.57;102544.16;4956592;28;46066;-51
2022/03/23 09:09:03;;;;;;;;;22.25;21.75;;;;;19.43;29.67;102551.16;4957449;28;45333;-43
2022/03/23 09:11:29;;;;;;;;;19.50;18.50;;;;;19.44;29.38;102539.72;4956792;28;45348;-46
2022/03/23 09:13:57;;;;;;;;;22.75;19.75;;;;;19.45;29.58;102540.59;4957319;28;45578;-47
2022/03/23 09:16:23;;;;;;;;;22.00;19.25;;;;;19.44;29.31;102534.47;4956677;28;46498;-52
2022/03/23 09:18:49;;;;;;;;;23.75;20.25;;;;;19.44;29.33;102534.47;4956364;28;45430;-45
2022/03/23 09:21:15;;;;;;;;;16.00;15.50;;;;;19.46;29.57;102531.81;5016675;27;45661;-44
2022/03/23 09:23:41;;;;;;;;;22.50;19.50;;;;;19.46;29.48;102537.06;5032316;27;45460;-48
2022/03/23 09:26:10;;;;;;;;;19.25;18.50;;;;;19.46;29.52;102531.81;4974849;28;46075;-48
2022/03/23 09:28:36;;;;;;;;;20.75;19.00;;;;;19.46;29.32;102537.91;4975284;28;45951;-50
2022/03/23 09:31:01;;;;;;;;;18.25;16.50;;;;;19.47;29.31;102534.38;4973898;28;45722;-52
2022/03/23 09:33:28;;;;;;;;;22.75;16.00;;;;;19.47;29.56;102533.53;4958089;28;45489;-48
2022/03/23 09:35:53;;;;;;;;;25.50;22.75;;;;;19.49;29.48;102537.00;4974118;28;46009;-54
2022/03/23 09:38:19;;;;;;;;;11.75;11.75;;;;;19.49;29.65;102537.00;4975152;28;45489;-49
2022/03/23 09:40:51;;;;;;;;;22.75;19.25;;;;;19.51;29.81;102534.31;4975232;27;45488;-49
2022/03/23 09:43:21;;;;;;;;;19.50;17.50;;;;;19.51;29.79;102540.47;4975467;28;45363;-51
2022/03/23 09:45:47;;;;;;;;;19.00;17.25;;;;;19.52;29.66;102541.31;4975210;28;46120;-50
2022/03/23 09:48:16;;;;;;;;;20.00;18.25;;;;;19.53;29.75;102543.03;4975238;28;45482;-54
2022/03/23 09:50:45;;;;;;;;;19.50;18.50;;;;;19.53;29.78;102543.88;4975283;28;45358;-53
2022/03/23 09:53:11;;;;;;;;;16.75;15.50;;;;;19.53;29.89;102543.88;4975448;28;45315;-52
2022/03/23 09:55:37;;;;;;;;;18.25;18.00;;;;;19.54;29.55;102542.13;4974953;28;46190;-55
2022/03/23 09:58:06;;;;;;;;;22.50;17.50;;;;;19.56;29.53;102548.25;4974909;28;45794;-50
2022/03/23 10:00:37;;;;;;;;;18.75;18.75;;;;;19.55;29.63;102539.47;4975343;28;45405;-54
2022/03/23 10:03:09;;;;;;;;;18.25;16.50;;;;;19.56;29.76;102542.97;4975302;28;45247;-46
2022/03/23 10:05:59;;;;;;;;;20.25;18.75;;;;;19.57;29.44;102539.41;4976274;27;45480;-46
2022/03/23 10:09:02;;;;;;;;;17.50;16.25;;;;;19.57;29.48;102536.78;4964931;28;45818;-50
2022/03/23 10:11:42;;;;;;;;;17.25;17.00;;;;;19.58;29.64;102546.41;4964083;28;45377;-45
2022/03/23 10:14:44;;;;;;;;;18.25;18.00;;;;;19.58;29.75;102541.16;4966121;28;45494;-51
2022/03/23 10:17:45;;;;;;;;;14.75;13.75;;;;;19.59;29.60;102540.25;4980606;28;46739;-44
2022/03/23 10:20:12;;;;;;;;;21.50;18.75;;;;;19.59;29.71;102532.34;4964219;28;45702;-52
2022/03/23 10:22:51;;;;;;;;;19.25;16.25;;;;;19.59;29.44;102532.34;4973483;28;45404;-54
2022/03/23 10:25:18;;;;;;;;;17.75;16.00;;;;;19.59;30.06;102533.25;4974438;28;45483;-52
2022/03/23 10:27:45;;;;;;;;;19.75;17.25;;;;;19.60;29.52;102519.19;4974672;28;46130;-54
2022/03/23 10:30:12;;;;;;;;;15.00;12.25;;;;;19.60;29.96;102527.09;4975033;28;45990;-55
2022/03/23 10:32:42;;;;;;;;;14.25;14.25;;;;;19.60;29.86;102521.81;4975511;28;45354;-49
2022/03/23 10:35:16;;;;;;;;;20.00;15.75;;;;;19.61;29.89;102520.03;4974213;28;45557;-53
2022/03/23 10:37:43;;;;;;;;;17.25;14.50;;;;;19.62;29.62;102519.13;4975163;28;45648;-55
2022/03/23 10:40:13;;;;;;;;;19.00;17.75;;;;;19.61;28.91;102518.28;4975161;28;45460;-53
2022/03/23 10:42:45;;;;;;;;;20.00;19.50;;;;;19.60;28.12;102523.56;4975474;28;45302;-49
2022/03/23 10:45:16;;;;;;;;;22.00;17.50;;;;;19.56;27.63;102516.69;4975488;28;45452;-54
2022/03/23 10:47:43;;;;;;;;;16.75;16.75;;;;;19.52;27.30;102507.13;4974970;28;47165;-50
2022/03/23 10:50:10;;;;;;;;;18.50;17.25;;;;;19.49;27.39;102520.34;4975195;28;45708;-55
2022/03/23 10:52:48;;;;;;;;;24.50;21.75;;;;;19.44;27.18;102510.81;4973842;28;45507;-54
2022/03/23 10:55:15;;;;;;;;;23.50;21.75;;;;;19.41;26.67;102512.63;4975449;28;45521;-53
2022/03/23 10:57:43;;;;;;;;;19.25;19.25;;;;;19.40;26.99;102505.66;4974826;28;46968;-54
2022/03/23 11:00:14;;;;;;;;;24.50;22.50;;;;;19.37;26.57;102506.59;4973769;28;45926;-51
2022/03/23 11:02:47;;;;;;;;;20.25;20.25;;;;;19.35;26.46;102503.13;4975026;28;45393;-55
2022/03/23 11:05:39;;;;;;;;;21.25;21.25;;;;;19.34;26.31;102504.03;4975074;28;45562;-53
2022/03/23 11:08:18;;;;;;;;;25.25;22.75;;;;;19.33;25.75;102499.69;4973645;28;46423;-53
2022/03/23 11:16:34;;;;;;;;;19.00;17.50;;;;;19.29;25.34;102496.25;4974927;28;45327;-50
2022/03/23 11:19:08;;;;;;;;;25.00;24.00;;;;;19.30;25.32;102491.88;4974783;28;46061;-49
2022/03/23 11:22:09;;;;;;;;;25.25;21.75;;;;;19.29;24.71;102487.50;4974631;28;45772;-51
2022/03/23 11:24:40;;;;;;;;;23.25;23.00;;;;;19.28;24.72;102483.13;4974480;28;45371;-52
2022/03/23 11:27:08;;;;;;;;;25.25;19.75;;;;;19.27;24.66;102478.78;4974886;28;45258;-52
2022/03/23 11:29:35;;;;;;;;;26.25;21.25;;;;;19.27;24.55;102468.25;4974313;28;46682;-53